Hakui, Japan
Current Conditions -  °F | °C
As of 9:00 PM on Tuesday 21 Oct 2014 (Local Time) from RJNT Reporting Station
Rain Showers Rain Showers  
Wind Chill: 64°   Ceiling: 600
Heat Index: 64°   Visibility: 5mi
Dew Point: 63°   Wind: 9mph
Humidity: 94%   Direction: 20°NNE
Pressure: 29.94"   Gusts: NA
Location:  36.9°N, 136.77°E
Report Text: RJNT 211200Z 02008KT 8000 -SHRA SCT005 BKN006 BKN030 18/17 Q1014
Loading
Personal Weather Stations






























Interactive Weather Map
Tropical Storm Tracking
New forecast layout! Learn more

10-Day Weather Forecast

Advertisements
Track Severe Weather on mobile